Feltonville, Pennsylvania
Current Conditions -  °F | °C
As of 10:54 PM on Tuesday 21 Oct 2014 (Local Time) from KPHL Reporting Station
Broken Clouds Broken Clouds  
Wind Chill: 60°   Ceiling: 8000
Heat Index: 60°   Visibility: 10mi
Dew Point: 52°   Wind: 10mph
Humidity: 75%   Direction: 50°NE
Pressure: 29.88"   Gusts: NA
Location:  39.8463°N, 75.374°W
Report Text: KPHL 220254Z 05009KT 10SM FEW050 BKN080 BKN200 16/11 A2988 RMK AO2 SLP119 T01560111 51013 $
Loading
Personal Weather Stations






























Interactive Weather Map
Tropical Storm Tracking
New forecast layout! Learn more

10-Day Weather Forecast

Advertisements
Track Severe Weather on mobile